Time;durP1;ratioP1;P1;durP2;ratioP2;P2;SDS_P1;SDS_P2;PMS_P1;PMS_P2;Temp;Humidity;BMP_temperature;BMP_pressure;BME280_temperature;BME280_humidity;BME280_pressure;Samples;Min_cycle;Max_cycle;Signal;HPM_P1;HPM_P2
2021/11/10 00:49:34;;;;;;;0.95;0.95;;;;;;;-2.13;65.78;101540.41;6330182;22;20042;-75
2021/11/10 00:52:00;;;;;;;1.15;1.15;;;;;;;-2.10;65.92;101537.09;6331903;22;20026;-74
2021/11/10 00:54:26;;;;;;;1.00;1.00;;;;;;;-2.07;65.77;101528.63;6330106;22;20018;-74
2021/11/10 00:56:55;;;;;;;1.38;1.27;;;;;;;-2.08;65.86;101537.13;6331878;22;20075;-74
2021/11/10 00:59:21;;;;;;;0.68;0.68;;;;;;;-2.06;65.51;101532.91;6330447;22;20018;-74
2021/11/10 01:01:48;;;;;;;0.95;0.95;;;;;;;-2.06;64.81;101530.34;6330275;22;20045;-74
2021/11/10 01:04:14;;;;;;;1.02;1.02;;;;;;;-2.02;64.30;101534.69;6331847;22;20072;-74
2021/11/10 01:06:40;;;;;;;0.60;0.60;;;;;;;-2.00;63.77;101536.47;6332166;22;20015;-73
2021/11/10 01:09:06;;;;;;;1.25;0.93;;;;;;;-1.97;64.29;101546.78;6330260;22;20015;-74
2021/11/10 01:11:32;;;;;;;0.93;0.93;;;;;;;-2.07;64.44;101531.19;6330547;22;20065;-75
2021/11/10 01:14:00;;;;;;;0.70;0.70;;;;;;;-1.97;64.71;101551.03;6332389;22;20077;-74
2021/11/10 01:16:26;;;;;;;4.40;1.65;;;;;;;-2.04;64.29;101544.03;6306436;22;20014;-73
2021/11/10 01:18:52;;;;;;;1.20;1.20;;;;;;;-2.03;64.58;101545.78;6332277;22;20042;-73
2021/11/10 01:21:22;;;;;;;0.80;0.80;;;;;;;-2.00;64.82;101548.41;6332515;22;20050;-74
2021/11/10 01:23:49;;;;;;;1.10;1.08;;;;;;;-2.04;65.09;101549.16;6333573;22;20454;-74
2021/11/10 01:26:15;;;;;;;1.10;1.10;;;;;;;-2.07;64.11;101541.41;6306259;22;20071;-75
2021/11/10 01:28:42;;;;;;;3.97;0.77;;;;;;;-2.03;64.45;101549.22;6306522;22;20014;-75
2021/11/10 01:31:10;;;;;;;0.82;0.82;;;;;;;-2.03;64.48;101558.56;6331283;22;20026;-74
2021/11/10 01:33:37;;;;;;;0.85;0.85;;;;;;;-2.03;64.04;101553.44;6306217;22;20021;-72
2021/11/10 01:36:03;;;;;;;1.33;1.33;;;;;;;-2.09;64.49;101546.47;6280020;22;20088;-74
2021/11/10 01:38:32;;;;;;;1.30;1.20;;;;;;;-2.12;64.31;101547.28;6333684;22;20018;-74
2021/11/10 01:40:58;;;;;;;1.08;1.08;;;;;;;-2.14;64.47;101548.94;6333254;22;20014;-74
2021/11/10 01:43:25;;;;;;;0.50;0.50;;;;;;;-2.18;64.55;101561.63;6332076;22;20159;-75
2021/11/10 01:45:55;;;;;;;1.30;1.20;;;;;;;-2.16;64.70;101567.66;6333414;22;20365;-75
2021/11/10 01:48:21;;;;;;;2.03;1.33;;;;;;;-2.19;65.36;101572.66;6305749;22;20022;-75
2021/11/10 01:50:47;;;;;;;0.85;0.85;;;;;;;-2.22;64.40;101553.00;6306422;22;20085;-75
2021/11/10 01:53:14;;;;;;;0.70;0.70;;;;;;;-2.25;64.82;101558.03;6306214;22;20101;-74
2021/11/10 01:55:40;;;;;;;5.07;2.63;;;;;;;-2.31;65.87;101564.69;6331902;22;20019;-73
2021/11/10 01:58:06;;;;;;;1.48;1.40;;;;;;;-2.34;65.72;101570.63;6331778;22;20027;-73
2021/11/10 02:00:37;;;;;;;1.15;1.15;;;;;;;-2.36;65.96;101569.72;6307349;22;20018;-73
2021/11/10 02:03:08;;;;;;;0.88;0.88;;;;;;;-2.34;65.76;101585.09;6308019;22;20504;-73
2021/11/10 02:05:50;;;;;;;3.00;2.35;;;;;;;-2.33;65.37;101587.69;6334280;22;20027;-73
2021/11/10 02:08:34;;;;;;;0.80;0.80;;;;;;;-2.38;65.58;101584.13;6334068;22;20069;-72
2021/11/10 02:11:06;;;;;;;0.63;0.63;;;;;;;-2.33;65.70;101605.59;6284064;22;20029;-74
2021/11/10 02:13:33;;;;;;;1.10;1.10;;;;;;;-2.32;65.73;101598.75;6332229;22;20022;-75
2021/11/10 02:16:01;;;;;;;0.80;0.80;;;;;;;-2.38;65.97;101583.28;6306042;22;20018;-75
2021/11/10 02:18:28;;;;;;;1.00;1.00;;;;;;;-2.32;65.60;101602.19;6331980;22;20019;-75
2021/11/10 02:21:04;;;;;;;1.63;1.63;;;;;;;-2.38;66.05;101609.72;6306940;22;20019;-74
2021/11/10 02:23:30;;;;;;;0.60;0.60;;;;;;;-2.43;66.35;101610.44;6281405;22;20018;-73
2021/11/10 02:25:59;;;;;;;1.10;1.00;;;;;;;-2.45;66.34;101610.38;6333265;22;20535;-72
2021/11/10 02:28:25;;;;;;;0.60;0.60;;;;;;;-2.40;65.90;101607.94;6333617;22;20041;-72
2021/11/10 02:30:53;;;;;;;0.80;0.80;;;;;;;-2.43;66.46;101616.41;6332801;22;20015;-75
2021/11/10 02:33:28;;;;;;;2.45;1.35;;;;;;;-2.46;66.51;101618.88;6331612;22;20087;-73
2021/11/10 02:36:07;;;;;;;0.90;0.90;;;;;;;-2.44;66.41;101613.81;6305841;22;20015;-74
2021/11/10 02:38:33;;;;;;;0.85;0.85;;;;;;;-2.48;66.67;101625.63;6305169;22;20572;-74
2021/11/10 02:41:00;;;;;;;1.10;1.10;;;;;;;-2.61;67.41;101626.13;6331163;22;20027;-74
2021/11/10 02:43:26;;;;;;;1.33;1.23;;;;;;;-2.72;67.74;101630.09;6333124;22;20018;-74
2021/11/10 02:45:53;;;;;;;0.50;0.50;;;;;;;-2.76;68.04;101631.72;6305254;22;20333;-76
2021/11/10 02:48:19;;;;;;;0.68;0.68;;;;;;;-2.78;67.77;101627.41;6330990;22;20397;-75
2021/11/10 02:50:45;;;;;;;0.63;0.63;;;;;;;-2.80;68.48;101639.25;6332981;22;20021;-74
2021/11/10 02:53:12;;;;;;;1.00;1.00;;;;;;;-2.68;68.05;101631.91;6331101;22;20014;-75
2021/11/10 02:55:38;;;;;;;1.02;1.02;;;;;;;-2.66;68.09;101632.81;6332826;22;20545;-74
2021/11/10 02:58:04;;;;;;;1.92;1.30;;;;;;;-2.64;67.23;101641.38;6330940;22;20022;-73
2021/11/10 03:00:30;;;;;;;0.52;0.52;;;;;;;-2.55;67.55;101638.25;6331363;22;20548;-75
2021/11/10 03:02:58;;;;;;;1.05;1.05;;;;;;;-2.64;67.26;101643.94;6330985;22;20019;-75
2021/11/10 03:05:27;;;;;;;0.90;0.90;;;;;;;-2.58;67.66;101645.81;6331263;22;20068;-74
2021/11/10 03:07:55;;;;;;;0.50;0.50;;;;;;;-2.65;67.78;101649.91;6331155;22;20450;-74
2021/11/10 03:10:21;;;;;;;0.73;0.73;;;;;;;-2.69;67.78;101640.41;6305449;22;20098;-74
2021/11/10 03:12:49;;;;;;;0.80;0.80;;;;;;;-2.73;68.03;101636.03;6331380;22;20454;-74
2021/11/10 03:15:19;;;;;;;1.10;1.10;;;;;;;-2.69;68.24;101653.19;6280352;22;20374;-74
2021/11/10 03:17:45;;;;;;;0.90;0.90;;;;;;;-2.66;67.93;101648.16;6332544;22;20707;-74
2021/11/10 03:20:12;;;;;;;1.30;1.30;;;;;;;-2.56;68.21;101649.28;6279427;22;20058;-75
2021/11/10 03:22:41;;;;;;;1.27;1.27;;;;;;;-2.69;68.55;101648.94;6305711;22;20093;-73
2021/11/10 03:25:07;;;;;;;0.82;0.82;;;;;;;-2.77;68.99;101644.44;6330581;22;20042;-74
2021/11/10 03:27:34;;;;;;;0.80;0.80;;;;;;;-2.69;68.77;101648.09;6331050;22;20397;-74
2021/11/10 03:30:05;;;;;;;1.02;1.02;;;;;;;-2.90;69.30;101622.78;6305307;22;20076;-74
2021/11/10 03:32:45;;;;;;;0.60;0.60;;;;;;;-2.71;68.72;101665.03;6330912;22;20053;-74
2021/11/10 03:35:14;;;;;;;3.08;2.83;;;;;;;-2.70;69.32;101659.13;6330478;22;20014;-74
2021/11/10 03:37:41;;;;;;;1.65;1.35;;;;;;;-2.63;68.96;101668.69;6305174;22;20034;-74
2021/11/10 03:40:11;;;;;;;1.08;1.08;;;;;;;-2.63;68.89;101668.69;6330602;22;20034;-73
2021/11/10 03:42:40;;;;;;;0.57;0.57;;;;;;;-2.54;68.66;101671.50;6281308;22;20454;-74
2021/11/10 03:45:08;;;;;;;0.68;0.68;;;;;;;-2.55;69.02;101667.19;6330444;22;20018;-74
2021/11/10 03:47:35;;;;;;;1.10;1.10;;;;;;;-2.48;69.42;101670.78;6279215;22;20015;-73
2021/11/10 03:50:01;;;;;;;0.50;0.50;;;;;;;-2.48;69.59;101669.09;6330787;22;20049;-74
2021/11/10 03:52:27;;;;;;;1.98;1.90;;;;;;;-2.47;69.98;101673.41;6331140;22;20025;-74
2021/11/10 03:54:53;;;;;;;1.23;1.10;;;;;;;-2.33;69.19;101664.41;6330916;22;20021;-75
2021/11/10 03:57:19;;;;;;;0.70;0.70;;;;;;;-2.27;68.29;101662.00;6278273;22;20022;-74
2021/11/10 03:59:46;;;;;;;1.50;1.50;;;;;;;-2.29;68.58;101663.63;6304614;22;20462;-73
2021/11/10 04:02:12;;;;;;;1.35;1.35;;;;;;;-2.27;69.06;101661.13;6333051;22;20106;-73
2021/11/10 04:04:39;;;;;;;0.50;0.50;;;;;;;-2.25;68.99;101651.81;6333816;22;20019;-73
2021/11/10 04:07:06;;;;;;;0.60;0.60;;;;;;;-2.23;69.09;101655.28;6331822;22;20436;-73
2021/11/10 04:09:33;;;;;;;0.60;0.60;;;;;;;-2.18;69.13;101662.25;6304646;22;20018;-73
2021/11/10 04:12:00;;;;;;;0.88;0.88;;;;;;;-2.17;69.86;101661.41;6329503;22;20029;-74
2021/11/10 04:14:27;;;;;;;0.77;0.77;;;;;;;-2.21;69.96;101659.59;6328486;22;20097;-74
2021/11/10 04:16:54;;;;;;;5.93;1.65;;;;;;;-2.19;69.84;101672.41;6330156;22;20011;-75
2021/11/10 04:19:21;;;;;;;0.70;0.70;;;;;;;-2.14;69.39;101676.84;6304370;22;20019;-75
2021/11/10 04:21:47;;;;;;;0.73;0.73;;;;;;;-2.14;69.98;101676.84;6330820;22;20026;-74
2021/11/10 04:24:13;;;;;;;0.60;0.60;;;;;;;-2.20;70.06;101681.81;6330238;22;20023;-74
2021/11/10 04:26:39;;;;;;;1.02;1.02;;;;;;;-2.19;69.97;101683.53;6302904;22;20567;-75
2021/11/10 04:29:14;;;;;;;0.80;0.80;;;;;;;-2.16;69.26;101683.59;6328359;22;20077;-76
2021/11/10 04:31:40;;;;;;;0.50;0.50;;;;;;;-2.16;69.92;101683.59;6329628;22;20042;-75
2021/11/10 04:34:07;;;;;;;1.27;1.27;;;;;;;-2.17;69.74;101676.78;6302524;22;20648;-73
2021/11/10 04:36:34;;;;;;;0.60;0.60;;;;;;;-2.15;69.79;101682.78;6250983;22;20026;-74
2021/11/10 04:39:01;;;;;;;0.50;0.50;;;;;;;-2.09;68.91;101688.91;6327186;22;20105;-74
2021/11/10 04:41:27;;;;;;;0.70;0.70;;;;;;;-2.11;69.64;101684.59;6326455;22;20083;-74
2021/11/10 04:43:56;;;;;;;0.85;0.85;;;;;;;-2.12;69.62;101670.06;6330483;22;20019;-72
2021/11/10 04:46:34;;;;;;;0.57;0.57;;;;;;;-2.06;70.17;101679.56;6328722;22;20111;-74
2021/11/10 04:49:01;;;;;;;1.05;1.02;;;;;;;-2.04;70.23;101687.31;6332349;22;20026;-72
2021/11/10 04:51:27;;;;;;;0.55;0.55;;;;;;;-2.02;70.33;101685.63;6334302;22;20520;-73
2021/11/10 04:53:53;;;;;;;0.50;0.50;;;;;;;-2.02;70.45;101685.63;6332362;22;20049;-73
2021/11/10 04:56:20;;;;;;;0.60;0.60;;;;;;;-2.01;69.79;101687.38;6330321;22;20049;-74
2021/11/10 04:58:50;;;;;;;0.52;0.52;;;;;;;-2.00;69.66;101687.44;6330934;22;20085;-74
2021/11/10 05:01:22;;;;;;;0.75;0.75;;;;;;;-2.01;68.86;101683.13;6304177;22;20019;-74
2021/11/10 05:03:48;;;;;;;0.98;0.98;;;;;;;-2.00;68.93;101674.66;6279574;22;20046;-73
2021/11/10 05:06:17;;;;;;;0.60;0.60;;;;;;;-1.89;68.86;101683.44;6304674;22;20379;-74
2021/11/10 05:08:44;;;;;;;0.60;0.60;;;;;;;-1.89;68.91;101691.13;6330729;22;20022;-73
2021/11/10 05:11:10;;;;;;;0.60;0.60;;;;;;;-1.89;69.10;101682.56;6304157;22;20054;-75
2021/11/10 05:13:36;;;;;;;0.80;0.80;;;;;;;-1.96;70.00;101689.22;6304842;22;20100;-74
2021/11/10 05:16:03;;;;;;;0.52;0.52;;;;;;;-1.94;69.39;101695.25;6330705;22;20015;-73
2021/11/10 05:18:29;;;;;;;1.10;1.10;;;;;;;-1.96;68.73;101685.81;6304886;22;20027;-75
2021/11/10 05:20:55;;;;;;;0.50;0.50;;;;;;;-1.92;69.48;101692.72;6330828;22;20021;-74
2021/11/10 05:23:23;;;;;;;0.90;0.90;;;;;;;-1.96;69.83;101694.34;6330432;22;20015;-76
2021/11/10 05:25:50;;;;;;;1.10;0.82;;;;;;;-1.97;69.85;101700.31;6332152;22;20038;-74
2021/11/10 05:28:16;;;;;;;0.90;0.90;;;;;;;-1.99;70.33;101698.50;6331956;22;20026;-74
2021/11/10 05:30:42;;;;;;;0.50;0.50;;;;;;;-1.98;69.26;101702.81;6331670;22;20106;-75
2021/11/10 05:33:08;;;;;;;0.50;0.50;;;;;;;-2.00;69.25;101700.22;6331537;22;20015;-73
2021/11/10 05:35:34;;;;;;;1.70;1.60;;;;;;;-1.99;69.50;101698.50;6331304;22;20322;-73
2021/11/10 05:38:00;;;;;;;0.60;0.60;;;;;;;-1.96;69.52;101712.25;6330008;22;20022;-74
2021/11/10 05:40:26;;;;;;;0.60;0.60;;;;;;;-1.94;69.29;101704.63;6331441;22;20076;-74
2021/11/10 05:42:52;;;;;;;0.75;0.75;;;;;;;-1.86;68.39;101713.34;6330378;22;20072;-73
2021/11/10 05:45:19;;;;;;;0.70;0.70;;;;;;;-1.77;68.07;101703.38;6331260;22;20470;-73
2021/11/10 05:47:45;;;;;;;0.75;0.75;;;;;;;-1.68;68.19;101719.81;6331528;22;20022;-73
2021/11/10 05:50:11;;;;;;;0.73;0.73;;;;;;;-1.50;67.65;101714.25;6331352;22;20046;-73
2021/11/10 05:52:38;;;;;;;0.65;0.65;;;;;;;-1.45;67.69;101711.81;6330370;22;20019;-74
2021/11/10 05:55:05;;;;;;;0.57;0.57;;;;;;;-1.29;67.70;101714.78;6331157;22;20014;-74
2021/11/10 05:57:31;;;;;;;0.60;0.60;;;;;;;-1.05;66.09;101714.47;6330076;22;20114;-75
2021/11/10 05:59:57;;;;;;;1.23;1.23;;;;;;;-0.75;64.96;101714.22;6333469;22;20042;-75
2021/11/10 06:02:23;;;;;;;1.67;1.67;;;;;;;-0.34;64.37;101708.25;6333821;22;20110;-72
2021/11/10 06:04:49;;;;;;;0.77;0.77;;;;;;;-0.66;64.58;101704.19;6333882;22;20049;-71
2021/11/10 06:07:15;;;;;;;0.88;0.88;;;;;;;-0.88;65.83;101712.28;6333454;22;20023;-73
2021/11/10 06:09:41;;;;;;;0.60;0.60;;;;;;;-1.02;65.77;101703.41;6333387;22;20068;-73
2021/11/10 06:12:08;;;;;;;0.60;0.60;;;;;;;-0.89;66.50;101707.97;6333955;22;20038;-73
2021/11/10 06:14:34;;;;;;;0.70;0.70;;;;;;;-0.92;66.22;101705.34;6333310;22;20030;-71
2021/11/10 06:17:00;;;;;;;0.70;0.70;;;;;;;-1.01;66.05;101705.16;6331561;22;20022;-74
2021/11/10 06:19:26;;;;;;;1.05;1.05;;;;;;;-1.07;66.53;101708.41;6334016;22;20465;-73
2021/11/10 06:21:53;;;;;;;0.85;0.85;;;;;;;-0.93;65.50;101708.72;6333350;22;20019;-73
2021/11/10 06:24:20;;;;;;;0.50;0.50;;;;;;;-1.11;66.43;101715.16;6332868;22;20091;-73
2021/11/10 06:26:48;;;;;;;0.60;0.60;;;;;;;-0.87;65.38;101708.84;6305520;22;20042;-73
2021/11/10 06:29:14;;;;;;;0.80;0.80;;;;;;;-1.00;65.40;101704.28;6332863;22;20019;-72
2021/11/10 06:40:05;;;;;;;0.90;0.90;;;;;;;-0.55;65.25;101712.94;6328263;22;20030;-76
2021/11/10 06:42:31;;;;;;;0.70;0.70;;;;;;;1.09;58.99;101708.88;6329961;22;20015;-75
2021/11/10 06:44:58;;;;;;;0.80;0.80;;;;;;;1.50;57.71;101706.84;6331953;22;20015;-77
2021/11/10 06:47:24;;;;;;;0.93;0.93;;;;;;;1.81;56.91;101698.59;6331396;22;20026;-77
2021/11/10 06:49:50;;;;;;;1.15;1.15;;;;;;;2.01;55.31;101703.94;6332112;22;20015;-76
2021/11/10 06:52:16;;;;;;;0.90;0.90;;;;;;;1.87;56.27;101710.66;6331357;22;20042;-74
2021/11/10 06:54:42;;;;;;;0.90;0.90;;;;;;;1.79;56.85;101708.03;6279190;22;20040;-79
2021/11/10 06:57:08;;;;;;;0.77;0.77;;;;;;;2.07;55.70;101706.56;6331338;22;20494;-75
2021/11/10 06:59:34;;;;;;;1.23;1.15;;;;;;;2.54;54.82;101707.00;6330427;22;20018;-77
2021/11/10 07:02:00;;;;;;;1.42;1.42;;;;;;;2.69;53.05;101690.75;6331675;22;20110;-75
2021/11/10 07:04:26;;;;;;;1.20;1.20;;;;;;;1.80;55.32;101694.28;6304067;22;20170;-80
2021/11/10 07:06:52;;;;;;;0.73;0.73;;;;;;;0.30;60.20;101697.41;6331760;22;20026;-78
2021/11/10 07:09:19;;;;;;;0.60;0.60;;;;;;;-0.21;62.49;101699.06;6330138;22;20623;-77
2021/11/10 07:11:45;;;;;;;0.52;0.52;;;;;;;-0.10;62.39;101706.13;6331728;22;20015;-75
2021/11/10 07:14:11;;;;;;;1.38;1.38;;;;;;;0.17;61.08;101702.31;6331823;22;20117;-76
2021/11/10 07:16:38;;;;;;;1.33;1.33;;;;;;;1.47;57.59;101696.50;6333422;22;20018;-79
2021/11/10 07:19:04;;;;;;;1.65;1.45;;;;;;;2.14;54.45;101686.88;6330168;22;20472;-77
2021/11/10 07:21:30;;;;;;;0.68;0.68;;;;;;;1.73;55.67;101681.34;6304560;22;20135;-76
2021/11/10 07:23:56;;;;;;;0.93;0.93;;;;;;;2.28;54.38;101690.47;6304322;22;20022;-74
2021/11/10 07:26:22;;;;;;;0.82;0.82;;;;;;;2.15;54.59;101691.19;6330872;22;20019;-78
2021/11/10 07:28:48;;;;;;;0.80;0.80;;;;;;;2.24;54.09;101670.66;6304930;22;20022;-75
2021/11/10 07:31:14;;;;;;;0.68;0.68;;;;;;;2.64;52.90;101695.91;6303926;22;20062;-76
2021/11/10 07:33:54;;;;;;;0.60;0.60;;;;;;;1.56;56.05;101684.63;6330722;22;20018;-75
2021/11/10 07:36:22;;;;;;;1.52;1.52;;;;;;;1.13;57.34;101696.91;6254445;22;20037;-76
2021/11/10 07:38:48;;;;;;;1.05;1.05;;;;;;;1.86;55.47;101683.22;6331852;22;20018;-76
2021/11/10 07:41:17;;;;;;;6.07;2.25;;;;;;;2.26;54.66;101679.28;6279666;22;20343;-75
2021/11/10 07:43:44;;;;;;;16.10;1.10;;;;;;;2.96;52.25;101678.03;6331455;22;20019;-75
2021/11/10 07:46:14;;;;;;;0.85;0.80;;;;;;;2.97;52.17;101679.78;6302640;22;20452;-76
2021/11/10 07:48:40;;;;;;;0.73;0.73;;;;;;;4.39;48.11;101681.84;6330966;22;20018;-75
2021/11/10 07:51:07;;;;;;;0.85;0.85;;;;;;;3.51;50.51;101694.63;6334197;22;20379;-77
2021/11/10 07:53:34;;;;;;;0.70;0.70;;;;;;;1.40;55.89;101692.13;6337324;22;20031;-74
2021/11/10 07:56:00;;;;;;;1.58;1.58;;;;;;;1.32;56.84;101704.03;6335740;22;20022;-74
2021/11/10 07:58:26;;;;;;;3.10;1.35;;;;;;;1.34;57.32;101702.34;6332051;22;20026;-75
2021/11/10 08:00:52;;;;;;;1.05;1.05;;;;;;;1.73;56.20;101697.66;6333444;22;20046;-76
2021/11/10 08:03:18;;;;;;;1.05;1.05;;;;;;;2.33;55.00;101699.94;6303686;22;20098;-75
2021/11/10 08:05:44;;;;;;;0.80;0.80;;;;;;;2.57;53.51;101696.69;6329686;22;20022;-77
2021/11/10 08:08:10;;;;;;;1.13;1.13;;;;;;;2.48;53.74;101701.78;6302120;22;20103;-75
2021/11/10 08:10:36;;;;;;;0.98;0.98;;;;;;;3.69;51.12;101702.44;6328422;22;20014;-74
2021/11/10 08:13:02;;;;;;;3.95;1.38;;;;;;;2.87;52.63;101696.91;6329379;22;20018;-76
2021/11/10 08:15:29;;;;;;;1.05;1.05;;;;;;;2.34;53.64;101705.97;6327175;22;20022;-77
2021/11/10 08:17:55;;;;;;;0.80;0.80;;;;;;;2.67;53.19;101708.81;6302126;22;20126;-77
2021/11/10 08:20:21;;;;;;;0.80;0.80;;;;;;;4.11;49.74;101702.53;6327179;22;20042;-76
2021/11/10 08:22:47;;;;;;;1.17;1.17;;;;;;;5.51;45.32;101685.03;6330390;22;20026;-75
2021/11/10 08:25:15;;;;;;;1.10;1.10;;;;;;;3.42;49.55;101703.22;6329351;22;20011;-75
2021/11/10 08:27:41;;;;;;;0.80;0.80;;;;;;;3.28;51.59;101701.41;6331532;22;20084;-74
2021/11/10 08:30:09;;;;;;;1.23;1.23;;;;;;;4.34;49.07;101706.84;6331554;22;20018;-74
2021/11/10 08:32:36;;;;;;;1.10;1.10;;;;;;;4.47;48.40;101704.28;6331416;22;20462;-72
2021/11/10 08:35:03;;;;;;;0.80;0.80;;;;;;;4.14;48.52;101696.50;6331567;22;20025;-74
2021/11/10 08:37:29;;;;;;;1.13;1.13;;;;;;;4.00;48.76;101700.78;6303425;22;20026;-73
2021/11/10 08:39:55;;;;;;;1.00;1.00;;;;;;;3.32;51.32;101710.91;6329825;22;20481;-75
2021/11/10 08:42:29;;;;;;;1.63;1.52;;;;;;;3.09;51.98;101703.03;6328987;22;20087;-73
2021/11/10 08:44:57;;;;;;;0.80;0.80;;;;;;;3.75;51.06;101697.28;6331322;22;20019;-73
2021/11/10 08:47:23;;;;;;;0.90;0.90;;;;;;;3.54;50.80;101687.75;6329287;22;20583;-75
2021/11/10 08:49:49;;;;;;;0.60;0.60;;;;;;;2.35;53.42;101694.81;6331559;22;20029;-75
2021/11/10 08:52:16;;;;;;;0.77;0.77;;;;;;;3.13;51.41;101695.34;6277405;22;20030;-74
2021/11/10 08:54:42;;;;;;;0.85;0.85;;;;;;;1.95;54.84;101691.88;6329566;22;20015;-74
2021/11/10 08:57:08;;;;;;;0.82;0.82;;;;;;;1.14;57.99;101693.50;6303254;22;20095;-75
2021/11/10 08:59:34;;;;;;;0.70;0.70;;;;;;;1.01;58.30;101698.47;6329622;22;20026;-76
2021/11/10 09:02:01;;;;;;;0.73;0.73;;;;;;;0.92;59.26;101698.34;6329465;22;20019;-75
2021/11/10 09:04:27;;;;;;;0.70;0.70;;;;;;;0.98;58.62;101688.16;6303625;22;20445;-75
2021/11/10 09:06:53;;;;;;;1.17;1.17;;;;;;;0.66;60.12;101706.53;6331073;22;20015;-75
2021/11/10 09:09:19;;;;;;;0.80;0.80;;;;;;;0.68;60.12;101697.16;6329448;22;20499;-75
2021/11/10 09:11:45;;;;;;;1.05;1.05;;;;;;;1.00;60.13;101693.34;6331325;22;20076;-75
2021/11/10 09:14:11;;;;;;;0.60;0.60;;;;;;;0.86;59.97;101690.56;6329413;22;20019;-75
2021/11/10 09:16:37;;;;;;;0.80;0.80;;;;;;;0.72;60.22;101694.63;6331311;22;20041;-75
2021/11/10 09:19:03;;;;;;;0.57;0.57;;;;;;;0.66;60.63;101698.81;6329933;22;20514;-76
2021/11/10 09:21:30;;;;;;;1.33;1.30;;;;;;;0.86;60.45;101698.28;6330713;22;20405;-77
2021/11/10 09:23:56;;;;;;;0.88;0.88;;;;;;;0.94;59.90;101691.56;6331378;22;20026;-75
2021/11/10 09:26:22;;;;;;;0.90;0.90;;;;;;;0.90;60.08;101679.50;6330519;22;20014;-76
2021/11/10 09:28:48;;;;;;;1.23;1.23;;;;;;;0.92;60.43;101682.94;6330848;22;20026;-75
2021/11/10 09:31:14;;;;;;;1.58;1.58;;;;;;;1.30;59.89;101691.16;6330638;22;20106;-75
2021/11/10 09:33:42;;;;;;;13.00;1.75;;;;;;;1.47;59.16;101691.38;6329969;22;20068;-73
2021/11/10 09:36:08;;;;;;;2.58;2.38;;;;;;;1.27;59.85;101692.84;6333288;22;20105;-74
2021/11/10 09:38:35;;;;;;;0.60;0.60;;;;;;;1.36;58.82;101687.78;6333015;22;20491;-72
2021/11/10 09:41:03;;;;;;;0.90;0.90;;;;;;;1.25;58.87;101691.94;6331498;22;20025;-74
2021/11/10 09:43:34;;;;;;;0.70;0.70;;;;;;;1.14;59.73;101683.22;6331096;22;20014;-74
2021/11/10 09:46:01;;;;;;;0.98;0.98;;;;;;;1.07;59.81;101691.72;6331591;22;20022;-76
2021/11/10 09:48:27;;;;;;;0.95;0.95;;;;;;;0.91;59.93;101685.50;6330688;22;20022;-76
2021/11/10 09:50:53;;;;;;;0.50;0.50;;;;;;;0.91;60.29;101686.38;6279299;22;20022;-76
2021/11/10 09:53:20;;;;;;;0.77;0.77;;;;;;;0.93;59.84;101700.09;6304980;22;20051;-73
2021/11/10 09:55:46;;;;;;;0.77;0.77;;;;;;;0.98;60.18;101687.31;6332536;22;20027;-75
2021/11/10 09:58:13;;;;;;;0.95;0.95;;;;;;;0.85;60.82;101688.81;6332037;22;20050;-75
2021/11/10 10:00:47;;;;;;;0.60;0.60;;;;;;;1.04;60.45;101698.53;6334290;22;20015;-75
2021/11/10 10:03:13;;;;;;;1.42;1.42;;;;;;;1.21;59.17;101695.34;6329787;22;20018;-74
2021/11/10 10:05:39;;;;;;;1.55;1.33;;;;;;;1.17;60.38;101689.28;6305061;22;20076;-75
2021/11/10 10:08:06;;;;;;;1.60;1.60;;;;;;;1.02;60.72;101684.78;6330892;22;20366;-73
2021/11/10 10:10:32;;;;;;;1.88;1.50;;;;;;;0.98;60.63;101683.00;6303710;22;20022;-73
2021/11/10 10:12:59;;;;;;;0.50;0.50;;;;;;;0.89;61.00;101689.72;6332210;22;20015;-74
2021/11/10 10:15:27;;;;;;;0.63;0.63;;;;;;;0.88;61.11;101682.88;6253953;22;20121;-73
2021/11/10 10:17:57;;;;;;;0.70;0.70;;;;;;;0.87;61.29;101689.72;6335664;22;20054;-74
2021/11/10 10:20:33;;;;;;;1.40;1.30;;;;;;;0.97;61.54;101672.72;6281537;22;20015;-74
2021/11/10 10:23:18;;;;;;;0.98;0.98;;;;;;;0.86;61.57;101672.56;6305298;22;20019;-73
2021/11/10 10:25:49;;;;;;;1.15;1.15;;;;;;;0.70;62.14;101675.75;6330544;22;20014;-73
2021/11/10 10:28:18;;;;;;;2.28;0.75;;;;;;;0.86;61.90;101653.72;6305493;22;20045;-73
2021/11/10 10:30:49;;;;;;;2.40;1.00;;;;;;;0.87;61.71;101664.03;6330529;22;20470;-75
2021/11/10 10:33:17;;;;;;;1.90;1.80;;;;;;;0.81;62.41;101648.53;6305099;22;20097;-74
2021/11/10 10:35:53;;;;;;;22.77;2.20;;;;;;;0.84;62.18;101648.56;6330950;22;20090;-74
2021/11/10 10:38:21;;;;;;;1.33;1.33;;;;;;;0.83;62.44;101641.69;6329307;22;20102;-73
2021/11/10 10:40:50;;;;;;;0.65;0.65;;;;;;;0.78;62.83;101653.63;6304907;22;20019;-73
2021/11/10 10:43:16;;;;;;;0.50;0.50;;;;;;;0.87;62.71;101640.88;6332276;22;20101;-73
2021/11/10 10:45:46;;;;;;;1.17;1.17;;;;;;;0.89;62.50;101639.19;6331394;22;20015;-76
2021/11/10 10:48:28;;;;;;;2.35;2.17;;;;;;;0.83;62.53;101641.69;6331301;22;20046;-73
2021/11/10 10:50:59;;;;;;;0.68;0.68;;;;;;;0.86;62.76;101639.16;6330076;22;20030;-75
2021/11/10 10:53:40;;;;;;;1.40;1.40;;;;;;;0.82;62.64;101628.81;6332053;22;20021;-75
2021/11/10 10:56:22;;;;;;;2.07;1.97;;;;;;;0.82;62.92;101619.38;6330548;22;20018;-75
2021/11/10 10:58:50;;;;;;;3.38;1.23;;;;;;;0.77;62.92;101621.03;6330456;22;20260;-73
2021/11/10 11:01:18;;;;;;;0.88;0.88;;;;;;;0.80;63.65;101625.34;6304152;22;20094;-73
2021/11/10 11:04:14;;;;;;;2.15;1.98;;;;;;;0.73;63.95;101632.13;6331161;22;20331;-74
2021/11/10 11:06:41;;;;;;;0.65;0.65;;;;;;;0.76;63.94;101628.72;6329349;22;20034;-74
2021/11/10 11:09:17;;;;;;;3.22;1.92;;;;;;;0.64;64.16;101634.56;6330364;22;20050;-73
2021/11/10 11:11:56;;;;;;;0.60;0.60;;;;;;;0.66;63.99;101604.59;6331932;22;20017;-74
2021/11/10 11:15:09;;;;;;;1.05;1.05;;;;;;;0.76;63.97;101627.00;6329915;22;20019;-74
2021/11/10 11:17:19;;;;;;;1.55;1.48;;;;;;;0.70;64.31;101619.22;6319141;22;20018;-75
2021/11/10 11:20:00;;;;;;;1.73;1.50;;;;;;;0.72;64.76;101617.53;6330298;22;20510;-73
2021/11/10 11:22:30;;;;;;;0.82;0.82;;;;;;;0.86;64.55;101616.00;6336995;22;20065;-75
2021/11/10 11:24:56;;;;;;;1.00;1.00;;;;;;;0.87;64.11;101607.47;6254424;22;20014;-74
2021/11/10 11:27:24;;;;;;;0.88;0.88;;;;;;;0.83;64.10;101613.41;6331674;22;20027;-75
2021/11/10 11:30:02;;;;;;;1.00;1.00;;;;;;;0.83;63.93;101608.25;6330221;22;20079;-74
2021/11/10 11:32:34;;;;;;;0.88;0.88;;;;;;;0.92;63.87;101595.53;6303976;22;20015;-74
2021/11/10 11:35:08;;;;;;;;;;;;;;;0.95;63.70;101603.28;6332478;22;20015;-74
2021/11/10 11:37:34;;;;;;;1.77;1.67;;;;;;;0.97;64.36;101588.75;6331896;22;19933;-73
2021/11/10 11:40:02;;;;;;;0.60;0.60;;;;;;;1.07;63.64;101588.84;6332031;22;20091;-74
2021/11/10 11:42:29;;;;;;;0.85;0.85;;;;;;;1.14;63.37;101580.34;6330804;22;20021;-73
2021/11/10 11:44:55;;;;;;;0.90;0.90;;;;;;;1.15;62.80;101584.63;6303798;22;20022;-75
2021/11/10 11:47:22;;;;;;;0.90;0.90;;;;;;;1.07;62.70;101576.00;6331352;22;20358;-75
2021/11/10 11:49:48;;;;;;;3.15;1.17;;;;;;;0.98;63.15;101580.16;6303784;22;20015;-74
2021/11/10 11:52:15;;;;;;;1.20;1.20;;;;;;;1.02;64.10;101576.78;6328842;22;20118;-74
2021/11/10 11:54:47;;;;;;;1.65;1.55;;;;;;;1.02;64.14;101589.66;6303871;22;20022;-76
2021/11/10 11:57:14;;;;;;;3.42;1.85;;;;;;;0.96;64.15;101581.88;6329998;22;20021;-75
2021/11/10 11:59:41;;;;;;;1.50;1.50;;;;;;;0.97;63.66;101583.59;6277693;22;20015;-76
2021/11/10 12:02:28;;;;;;;4.43;2.53;;;;;;;0.96;63.94;101589.56;6303862;22;20053;-74
2021/11/10 12:04:55;;;;;;;1.88;1.77;;;;;;;0.94;64.49;101588.72;6330674;22;20041;-74
2021/11/10 12:07:40;;;;;;;0.95;0.95;;;;;;;0.95;64.86;101580.13;6302662;22;20597;-74
2021/11/10 12:10:21;;;;;;;0.75;0.75;;;;;;;0.89;64.72;101586.91;6329949;22;20022;-75
2021/11/10 12:13:02;;;;;;;5.25;1.25;;;;;;;0.90;64.23;101576.66;6330228;22;20053;-74
2021/11/10 12:15:56;;;;;;;1.90;1.80;;;;;;;0.82;64.78;101573.13;6329617;22;20015;-75
2021/11/10 12:18:23;;;;;;;3.22;2.35;;;;;;;0.75;65.03;101576.47;6327755;22;20029;-75
2021/11/10 12:20:57;;;;;;;1.23;1.23;;;;;;;0.79;64.51;101580.78;6328343;22;20072;-74
2021/11/10 12:23:23;;;;;;;1.20;1.17;;;;;;;0.76;64.53;101583.31;6329228;22;20470;-73
2021/11/10 12:26:11;;;;;;;1.15;1.15;;;;;;;0.72;64.45;101581.56;6303560;22;20029;-75
2021/11/10 12:28:50;;;;;;;1.25;1.15;;;;;;;0.72;64.46;101584.13;6329791;22;20026;-73
2021/11/10 12:31:31;;;;;;;0.82;0.82;;;;;;;0.70;64.55;101579.81;6328351;22;20015;-73